sensor_id;sensor_type;location;lat;lon;timestamp;pressure;altitude;pressure_sealevel;temperature;humidity
24045;BME280;26257;49.442;8.422;2023-03-21T00:01:33;100732.53;;;11.71;98.71
24045;BME280;26257;49.442;8.422;2023-03-21T00:03:59;100727.28;;;11.74;97.90
24045;BME280;26257;49.442;8.422;2023-03-21T00:06:25;100730.72;;;11.67;98.62
24045;BME280;26257;49.442;8.422;2023-03-21T00:08:50;100719.19;;;11.62;100.00
24045;BME280;26257;49.442;8.422;2023-03-21T00:11:16;100727.06;;;11.56;100.00
24045;BME280;26257;49.442;8.422;2023-03-21T00:13:42;100721.66;;;11.44;100.00
24045;BME280;26257;49.442;8.422;2023-03-21T00:16:13;100707.56;;;11.48;100.00
24045;BME280;26257;49.442;8.422;2023-03-21T00:18:41;100710.03;;;11.32;100.00
24045;BME280;26257;49.442;8.422;2023-03-21T00:21:07;100716.09;;;11.20;100.00
24045;BME280;26257;49.442;8.422;2023-03-21T00:23:34;100708.97;;;11.16;100.00
24045;BME280;26257;49.442;8.422;2023-03-21T00:26:00;100705.38;;;11.11;100.00
24045;BME280;26257;49.442;8.422;2023-03-21T00:28:27;100707.34;;;11.26;100.00
24045;BME280;26257;49.442;8.422;2023-03-21T00:30:59;100706.50;;;11.30;100.00
24045;BME280;26257;49.442;8.422;2023-03-21T00:33:26;100702.94;;;11.29;100.00
24045;BME280;26257;49.442;8.422;2023-03-21T00:35:52;100693.16;;;11.19;100.00
24045;BME280;26257;49.442;8.422;2023-03-21T00:38:19;100699.53;;;11.38;100.00
24045;BME280;26257;49.442;8.422;2023-03-21T00:40:47;100695.00;;;11.26;100.00
24045;BME280;26257;49.442;8.422;2023-03-21T00:43:13;100698.47;;;11.22;100.00
24045;BME280;26257;49.442;8.422;2023-03-21T00:45:43;100693.22;;;11.25;100.00
24045;BME280;26257;49.442;8.422;2023-03-21T00:48:09;100684.34;;;11.22;100.00
24045;BME280;26257;49.442;8.422;2023-03-21T00:50:36;100694.97;;;11.23;100.00
24045;BME280;26257;49.442;8.422;2023-03-21T00:53:03;100684.47;;;11.32;100.00
24045;BME280;26257;49.442;8.422;2023-03-21T00:55:28;100687.16;;;11.34;100.00
24045;BME280;26257;49.442;8.422;2023-03-21T00:57:57;100687.22;;;11.41;100.00
24045;BME280;26257;49.442;8.422;2023-03-21T01:00:22;100677.53;;;11.43;100.00
24045;BME280;26257;49.442;8.422;2023-03-21T01:02:49;100684.63;;;11.44;100.00
24045;BME280;26257;49.442;8.422;2023-03-21T01:05:42;100681.13;;;11.48;100.00
24045;BME280;26257;49.442;8.422;2023-03-21T01:08:26;100680.16;;;11.40;100.00
24045;BME280;26257;49.442;8.422;2023-03-21T01:10:55;100677.50;;;11.40;100.00
24045;BME280;26257;49.442;8.422;2023-03-21T01:13:22;100675.72;;;11.36;100.00
24045;BME280;26257;49.442;8.422;2023-03-21T01:15:50;100678.38;;;11.38;100.00
24045;BME280;26257;49.442;8.422;2023-03-21T01:18:19;100665.13;;;11.36;100.00
24045;BME280;26257;49.442;8.422;2023-03-21T01:20:45;100673.03;;;11.35;100.00
24045;BME280;26257;49.442;8.422;2023-03-21T01:23:12;100675.66;;;11.30;100.00
24045;BME280;26257;49.442;8.422;2023-03-21T01:25:41;100673.00;;;11.29;100.00
24045;BME280;26257;49.442;8.422;2023-03-21T01:28:07;100663.34;;;11.35;100.00
24045;BME280;26257;49.442;8.422;2023-03-21T01:30:34;100660.75;;;11.40;100.00
24045;BME280;26257;49.442;8.422;2023-03-21T01:33:00;100659.88;;;11.39;100.00
24045;BME280;26257;49.442;8.422;2023-03-21T01:35:25;100651.13;;;11.46;100.00
24045;BME280;26257;49.442;8.422;2023-03-21T01:37:51;100651.94;;;11.39;100.00
24045;BME280;26257;49.442;8.422;2023-03-21T01:40:19;100648.31;;;11.28;100.00
24045;BME280;26257;49.442;8.422;2023-03-21T01:42:46;100650.13;;;11.37;100.00
24045;BME280;26257;49.442;8.422;2023-03-21T01:48:22;100647.47;;;11.35;100.00
24045;BME280;26257;49.442;8.422;2023-03-21T01:50:48;100647.56;;;11.41;100.00
24045;BME280;26257;49.442;8.422;2023-03-21T01:53:19;100649.41;;;11.51;100.00
24045;BME280;26257;49.442;8.422;2023-03-21T01:55:48;100654.78;;;11.57;100.00
24045;BME280;26257;49.442;8.422;2023-03-21T01:58:14;100656.47;;;11.55;100.00
24045;BME280;26257;49.442;8.422;2023-03-21T02:00:44;100645.03;;;11.56;100.00
24045;BME280;26257;49.442;8.422;2023-03-21T02:03:10;100645.00;;;11.52;100.00
24045;BME280;26257;49.442;8.422;2023-03-21T02:06:01;100641.44;;;11.48;100.00
24045;BME280;26257;49.442;8.422;2023-03-21T02:08:31;100644.00;;;11.39;100.00
24045;BME280;26257;49.442;8.422;2023-03-21T02:10:57;100639.66;;;11.44;100.00
24045;BME280;26257;49.442;8.422;2023-03-21T02:13:25;100629.94;;;11.43;100.00
24045;BME280;26257;49.442;8.422;2023-03-21T02:19:42;100626.38;;;11.41;100.00
24045;BME280;26257;49.442;8.422;2023-03-21T02:33:33;100612.16;;;11.30;100.00
24045;BME280;26257;49.442;8.422;2023-03-21T02:35:53;100613.94;;;11.31;100.00
24045;BME280;26257;49.442;8.422;2023-03-21T02:38:31;100616.59;;;11.31;100.00
24045;BME280;26257;49.442;8.422;2023-03-21T02:43:55;100613.03;;;11.29;100.00
24045;BME280;26257;49.442;8.422;2023-03-21T02:46:29;100610.38;;;11.29;100.00
24045;BME280;26257;49.442;8.422;2023-03-21T02:49:16;100606.84;;;11.27;100.00
24045;BME280;26257;49.442;8.422;2023-03-21T02:51:46;100608.63;;;11.28;100.00
24045;BME280;26257;49.442;8.422;2023-03-21T02:54:23;100613.84;;;11.22;100.00
24045;BME280;26257;49.442;8.422;2023-03-21T02:56:52;100610.97;;;11.01;100.00
24045;BME280;26257;49.442;8.422;2023-03-21T02:59:22;100616.16;;;10.90;100.00
24045;BME280;26257;49.442;8.422;2023-03-21T03:01:54;100612.00;;;11.10;100.00
24045;BME280;26257;49.442;8.422;2023-03-21T03:04:23;100611.84;;;10.97;100.00
24045;BME280;26257;49.442;8.422;2023-03-21T03:07:17;100604.69;;;10.90;100.00
24045;BME280;26257;49.442;8.422;2023-03-21T03:10:02;100597.13;;;11.23;100.00
24045;BME280;26257;49.442;8.422;2023-03-21T03:18:26;100598.81;;;11.15;100.00
24045;BME280;26257;49.442;8.422;2023-03-21T03:21:02;100599.59;;;11.08;100.00
24045;BME280;26257;49.442;8.422;2023-03-21T03:29:30;100597.81;;;11.04;100.00
24045;BME280;26257;49.442;8.422;2023-03-21T03:34:36;100602.28;;;11.11;100.00
24045;BME280;26257;49.442;8.422;2023-03-21T03:37:08;100602.94;;;10.89;100.00
24045;BME280;26257;49.442;8.422;2023-03-21T03:40:05;100608.84;;;10.68;100.00
24045;BME280;26257;49.442;8.422;2023-03-21T03:44:58;100600.44;;;11.04;100.00
24045;BME280;26257;49.442;8.422;2023-03-21T03:47:48;100595.19;;;11.07;100.00
24045;BME280;26257;49.442;8.422;2023-03-21T03:50:20;100594.09;;;10.87;100.00
24045;BME280;26257;49.442;8.422;2023-03-21T03:52:54;100591.03;;;10.53;100.00
24045;BME280;26257;49.442;8.422;2023-03-21T03:55:21;100591.22;;;10.66;100.00
24045;BME280;26257;49.442;8.422;2023-03-21T03:57:48;100590.50;;;10.79;100.00
24045;BME280;26257;49.442;8.422;2023-03-21T04:00:15;100594.97;;;10.84;100.00
24045;BME280;26257;49.442;8.422;2023-03-21T04:02:41;100602.84;;;10.83;100.00
24045;BME280;26257;49.442;8.422;2023-03-21T04:05:07;100592.28;;;10.83;100.00
24045;BME280;26257;49.442;8.422;2023-03-21T04:07:33;100588.78;;;10.84;100.00
24045;BME280;26257;49.442;8.422;2023-03-21T04:09:58;100595.91;;;10.91;100.00
24045;BME280;26257;49.442;8.422;2023-03-21T04:12:24;100585.38;;;10.94;100.00
24045;BME280;26257;49.442;8.422;2023-03-21T04:14:50;100587.03;;;10.86;100.00
24045;BME280;26257;49.442;8.422;2023-03-21T04:17:16;100588.56;;;10.66;100.00
24045;BME280;26257;49.442;8.422;2023-03-21T04:19:43;100588.41;;;10.53;100.00
24045;BME280;26257;49.442;8.422;2023-03-21T04:22:10;100584.00;;;10.52;100.00
24045;BME280;26257;49.442;8.422;2023-03-21T04:24:40;100584.91;;;10.53;100.00
24045;BME280;26257;49.442;8.422;2023-03-21T04:27:06;100593.72;;;10.57;100.00
24045;BME280;26257;49.442;8.422;2023-03-21T04:29:32;100584.75;;;10.42;100.00
24045;BME280;26257;49.442;8.422;2023-03-21T04:31:57;100596.84;;;10.25;100.00
24045;BME280;26257;49.442;8.422;2023-03-21T04:34:24;100595.06;;;10.23;100.00
24045;BME280;26257;49.442;8.422;2023-03-21T04:36:53;100589.06;;;10.36;100.00
24045;BME280;26257;49.442;8.422;2023-03-21T04:39:20;100592.75;;;10.47;100.00
24045;BME280;26257;49.442;8.422;2023-03-21T04:41:46;100594.56;;;10.52;100.00
24045;BME280;26257;49.442;8.422;2023-03-21T04:44:13;100594.63;;;10.57;100.00
24045;BME280;26257;49.442;8.422;2023-03-21T04:46:43;100592.75;;;10.48;100.00
24045;BME280;26257;49.442;8.422;2023-03-21T04:49:09;100599.81;;;10.51;100.00
24045;BME280;26257;49.442;8.422;2023-03-21T04:51:35;100587.50;;;10.51;100.00
24045;BME280;26257;49.442;8.422;2023-03-21T04:54:04;100584.91;;;10.54;100.00
24045;BME280;26257;49.442;8.422;2023-03-21T04:56:30;100588.53;;;10.63;100.00
24045;BME280;26257;49.442;8.422;2023-03-21T04:58:57;100586.56;;;10.46;100.00
24045;BME280;26257;49.442;8.422;2023-03-21T05:01:24;100580.59;;;10.63;100.00
24045;BME280;26257;49.442;8.422;2023-03-21T05:03:50;100576.03;;;10.48;100.00
24045;BME280;26257;49.442;8.422;2023-03-21T05:06:16;100575.09;;;10.44;100.00
24045;BME280;26257;49.442;8.422;2023-03-21T05:08:42;100572.47;;;10.44;100.00
24045;BME280;26257;49.442;8.422;2023-03-21T05:11:08;100561.84;;;10.41;100.00
24045;BME280;26257;49.442;8.422;2023-03-21T05:13:33;100561.84;;;10.41;100.00
24045;BME280;26257;49.442;8.422;2023-03-21T05:15:59;100568.78;;;10.33;100.00
24045;BME280;26257;49.442;8.422;2023-03-21T05:18:24;100567.94;;;10.34;100.00
24045;BME280;26257;49.442;8.422;2023-03-21T05:20:51;100574.69;;;10.14;100.00
24045;BME280;26257;49.442;8.422;2023-03-21T05:23:21;100571.69;;;9.90;100.00
24045;BME280;26257;49.442;8.422;2023-03-21T05:25:46;100569.69;;;9.74;100.00
24045;BME280;26257;49.442;8.422;2023-03-21T05:28:12;100569.50;;;9.62;100.00
24045;BME280;26257;49.442;8.422;2023-03-21T05:30:37;100576.53;;;9.63;100.00
24045;BME280;26257;49.442;8.422;2023-03-21T05:33:03;100568.69;;;9.67;100.00
24045;BME280;26257;49.442;8.422;2023-03-21T05:35:29;100577.59;;;9.74;100.00
24045;BME280;26257;49.442;8.422;2023-03-21T05:37:55;100571.69;;;9.90;100.00
24045;BME280;26257;49.442;8.422;2023-03-21T05:40:21;100573.63;;;10.03;100.00
24045;BME280;26257;49.442;8.422;2023-03-21T05:42:47;100561.56;;;10.19;100.00
24045;BME280;26257;49.442;8.422;2023-03-21T05:45:13;100561.56;;;10.20;100.00
24045;BME280;26257;49.442;8.422;2023-03-21T05:47:38;100554.59;;;10.24;100.00
24045;BME280;26257;49.442;8.422;2023-03-21T05:50:04;100557.16;;;10.18;100.00
24045;BME280;26257;49.442;8.422;2023-03-21T05:52:31;100564.72;;;9.95;100.00
24045;BME280;26257;49.442;8.422;2023-03-21T05:54:56;100576.91;;;9.87;100.00
24045;BME280;26257;49.442;8.422;2023-03-21T05:57:22;100572.69;;;10.01;100.00
24045;BME280;26257;49.442;8.422;2023-03-21T05:59:48;100575.31;;;9.98;100.00
24045;BME280;26257;49.442;8.422;2023-03-21T06:02:13;100573.88;;;10.18;100.00
24045;BME280;26257;49.442;8.422;2023-03-21T06:04:39;100571.44;;;10.33;100.00
24045;BME280;26257;49.442;8.422;2023-03-21T06:07:05;100579.25;;;10.27;100.00
24045;BME280;26257;49.442;8.422;2023-03-21T06:09:30;100583.03;;;10.46;100.00
24045;BME280;26257;49.442;8.422;2023-03-21T06:11:56;100571.69;;;10.54;100.00
24045;BME280;26257;49.442;8.422;2023-03-21T06:14:23;100583.13;;;10.53;100.00
24045;BME280;26257;49.442;8.422;2023-03-21T06:16:52;100577.03;;;10.58;100.00
24045;BME280;26257;49.442;8.422;2023-03-21T06:19:19;100578.06;;;10.72;100.00
24045;BME280;26257;49.442;8.422;2023-03-21T06:21:46;100586.25;;;10.96;100.00
24045;BME280;26257;49.442;8.422;2023-03-21T06:24:11;100582.72;;;10.95;100.00
24045;BME280;26257;49.442;8.422;2023-03-21T06:26:37;100587.06;;;10.89;100.00
24045;BME280;26257;49.442;8.422;2023-03-21T06:29:03;100574.00;;;11.05;100.00
24045;BME280;26257;49.442;8.422;2023-03-21T06:31:28;100578.47;;;11.11;100.00
24045;BME280;26257;49.442;8.422;2023-03-21T06:33:54;100582.06;;;11.16;100.00
24045;BME280;26257;49.442;8.422;2023-03-21T06:36:20;100587.47;;;11.28;100.00
24045;BME280;26257;49.442;8.422;2023-03-21T06:38:46;100589.28;;;11.35;100.00
24045;BME280;26257;49.442;8.422;2023-03-21T06:41:12;100592.69;;;11.22;100.00
24045;BME280;26257;49.442;8.422;2023-03-21T06:43:38;100597.16;;;11.29;100.00
24045;BME280;26257;49.442;8.422;2023-03-21T06:46:03;100598.06;;;11.28;100.00
24045;BME280;26257;49.442;8.422;2023-03-21T06:48:30;100592.75;;;11.28;100.00
24045;BME280;26257;49.442;8.422;2023-03-21T06:50:55;100596.19;;;11.21;100.00
24045;BME280;26257;49.442;8.422;2023-03-21T06:53:22;100582.13;;;11.22;100.00
24045;BME280;26257;49.442;8.422;2023-03-21T06:55:52;100584.00;;;11.34;100.00
24045;BME280;26257;49.442;8.422;2023-03-21T06:58:17;100578.81;;;11.44;100.00
24045;BME280;26257;49.442;8.422;2023-03-21T07:00:43;100578.94;;;11.59;100.00
24045;BME280;26257;49.442;8.422;2023-03-21T07:03:12;100571.97;;;11.69;100.00
24045;BME280;26257;49.442;8.422;2023-03-21T07:05:40;100570.16;;;11.66;100.00
24045;BME280;26257;49.442;8.422;2023-03-21T07:08:07;100572.06;;;11.83;100.00
24045;BME280;26257;49.442;8.422;2023-03-21T07:10:39;100576.50;;;11.85;100.00
24045;BME280;26257;49.442;8.422;2023-03-21T07:13:06;100577.47;;;11.98;100.00
24045;BME280;26257;49.442;8.422;2023-03-21T07:15:31;100581.13;;;12.15;100.00
24045;BME280;26257;49.442;8.422;2023-03-21T07:17:58;100581.09;;;12.12;100.00
24045;BME280;26257;49.442;8.422;2023-03-21T07:20:24;100571.44;;;12.24;100.00
24045;BME280;26257;49.442;8.422;2023-03-21T07:22:51;100570.53;;;12.25;100.00
24045;BME280;26257;49.442;8.422;2023-03-21T07:25:16;100575.94;;;12.42;100.00
24045;BME280;26257;49.442;8.422;2023-03-21T07:27:41;100579.44;;;12.35;100.00
24045;BME280;26257;49.442;8.422;2023-03-21T07:30:09;100572.44;;;12.52;100.00
24045;BME280;26257;49.442;8.422;2023-03-21T07:32:38;100579.63;;;12.83;100.00
24045;BME280;26257;49.442;8.422;2023-03-21T07:35:08;100577.88;;;12.96;100.00
24045;BME280;26257;49.442;8.422;2023-03-21T07:37:35;100568.16;;;12.80;100.00
24045;BME280;26257;49.442;8.422;2023-03-21T07:40:00;100570.91;;;13.27;100.00
24045;BME280;26257;49.442;8.422;2023-03-21T07:42:27;100574.44;;;13.35;100.00
24045;BME280;26257;49.442;8.422;2023-03-21T07:44:56;100573.56;;;13.43;100.00
24045;BME280;26257;49.442;8.422;2023-03-21T07:47:23;100562.94;;;13.75;96.45
24045;BME280;26257;49.442;8.422;2023-03-21T07:49:54;100576.25;;;13.52;99.32
24045;BME280;26257;49.442;8.422;2023-03-21T07:52:20;100565.56;;;13.96;91.88
24045;BME280;26257;49.442;8.422;2023-03-21T07:54:45;100570.88;;;13.90;91.76
24045;BME280;26257;49.442;8.422;2023-03-21T07:57:20;100574.38;;;14.22;90.19
24045;BME280;26257;49.442;8.422;2023-03-21T08:00:17;100567.16;;;14.61;86.80
24045;BME280;26257;49.442;8.422;2023-03-21T08:32:12;100558.16;;;14.86;86.86
24045;BME280;26257;49.442;8.422;2023-03-21T08:45:21;100566.50;;;15.67;74.48
24045;BME280;26257;49.442;8.422;2023-03-21T08:47:50;100559.25;;;15.81;74.25
24045;BME280;26257;49.442;8.422;2023-03-21T08:50:21;100562.91;;;15.71;70.84
24045;BME280;26257;49.442;8.422;2023-03-21T08:52:48;100564.69;;;15.69;69.97
24045;BME280;26257;49.442;8.422;2023-03-21T08:55:26;100563.84;;;15.65;70.45
24045;BME280;26257;49.442;8.422;2023-03-21T08:57:53;100560.22;;;15.74;72.69
24045;BME280;26257;49.442;8.422;2023-03-21T09:00:19;100555.84;;;15.65;73.20
24045;BME280;26257;49.442;8.422;2023-03-21T09:02:49;100561.22;;;15.61;65.49
24045;BME280;26257;49.442;8.422;2023-03-21T09:05:19;100561.34;;;15.49;63.96
24045;BME280;26257;49.442;8.422;2023-03-21T09:07:46;100552.25;;;15.71;64.39
24045;BME280;26257;49.442;8.422;2023-03-21T09:10:16;100561.22;;;15.61;65.67
24045;BME280;26257;49.442;8.422;2023-03-21T09:12:43;100565.03;;;15.23;69.03
24045;BME280;26257;49.442;8.422;2023-03-21T09:15:10;100558.75;;;15.35;63.75
24045;BME280;26257;49.442;8.422;2023-03-21T09:17:37;100556.19;;;15.18;64.16
24045;BME280;26257;49.442;8.422;2023-03-21T09:20:08;100561.69;;;14.91;63.97
24045;BME280;26257;49.442;8.422;2023-03-21T09:22:37;100565.34;;;14.69;64.21
24045;BME280;26257;49.442;8.422;2023-03-21T09:25:03;100568.09;;;14.54;65.53
24045;BME280;26257;49.442;8.422;2023-03-21T09:27:35;100554.69;;;14.78;65.69
24045;BME280;26257;49.442;8.422;2023-03-21T09:30:01;100555.56;;;14.77;64.75
24045;BME280;26257;49.442;8.422;2023-03-21T09:32:27;100558.94;;;15.06;63.99
24045;BME280;26257;49.442;8.422;2023-03-21T09:34:53;100550.81;;;15.27;63.74
24045;BME280;26257;49.442;8.422;2023-03-21T09:37:21;100556.00;;;15.41;63.39
24045;BME280;26257;49.442;8.422;2023-03-21T09:39:47;100546.16;;;15.58;63.31
24045;BME280;26257;49.442;8.422;2023-03-21T09:42:42;100543.56;;;15.51;62.75
24045;BME280;26257;49.442;8.422;2023-03-21T09:45:18;100545.44;;;15.30;62.35
24045;BME280;26257;49.442;8.422;2023-03-21T09:47:48;100555.31;;;15.19;62.28
24045;BME280;26257;49.442;8.422;2023-03-21T09:50:34;100561.53;;;15.15;62.48
24045;BME280;26257;49.442;8.422;2023-03-21T09:53:12;100551.34;;;15.73;62.93
24045;BME280;26257;49.442;8.422;2023-03-21T09:55:40;100547.09;;;15.53;63.76
24045;BME280;26257;49.442;8.422;2023-03-21T10:00:57;100551.56;;;15.41;65.48
24045;BME280;26257;49.442;8.422;2023-03-21T10:03:31;100558.72;;;15.33;66.31
24045;BME280;26257;49.442;8.422;2023-03-21T10:06:12;100550.75;;;15.30;67.09
24045;BME280;26257;49.442;8.422;2023-03-21T10:08:47;100544.38;;;15.57;68.22
24045;BME280;26257;49.442;8.422;2023-03-21T10:11:25;100550.53;;;15.64;68.52
24045;BME280;26257;49.442;8.422;2023-03-21T10:14:23;100541.75;;;15.56;68.56
24045;BME280;26257;49.442;8.422;2023-03-21T10:19:52;100547.34;;;15.13;70.52
24045;BME280;26257;49.442;8.422;2023-03-21T10:22:20;100538.50;;;15.14;71.72
24045;BME280;26257;49.442;8.422;2023-03-21T10:24:45;100538.25;;;15.41;72.66
24045;BME280;26257;49.442;8.422;2023-03-21T10:27:11;100529.31;;;15.55;71.92
24045;BME280;26257;49.442;8.422;2023-03-21T10:29:44;100533.53;;;15.75;70.61
24045;BME280;26257;49.442;8.422;2023-03-21T10:32:15;100530.25;;;15.49;70.54
24045;BME280;26257;49.442;8.422;2023-03-21T10:34:45;100527.50;;;15.57;71.76
24045;BME280;26257;49.442;8.422;2023-03-21T10:37:12;100526.72;;;15.42;71.86
24045;BME280;26257;49.442;8.422;2023-03-21T10:39:40;100527.59;;;15.48;72.65
24045;BME280;26257;49.442;8.422;2023-03-21T10:42:28;100523.22;;;15.36;71.28
24045;BME280;26257;49.442;8.422;2023-03-21T10:44:56;100526.88;;;15.23;72.81
24045;BME280;26257;49.442;8.422;2023-03-21T10:47:25;100517.03;;;15.35;74.01
24045;BME280;26257;49.442;8.422;2023-03-21T10:49:51;100529.78;;;14.83;77.05
24045;BME280;26257;49.442;8.422;2023-03-21T10:52:20;100520.06;;;14.81;79.99
24045;BME280;26257;49.442;8.422;2023-03-21T10:54:46;100517.19;;;15.14;77.83
24045;BME280;26257;49.442;8.422;2023-03-21T10:57:20;100519.16;;;14.88;78.29
24045;BME280;26257;49.442;8.422;2023-03-21T10:59:59;100526.16;;;15.04;77.19
24045;BME280;26257;49.442;8.422;2023-03-21T11:02:33;100521.00;;;14.77;79.39
24045;BME280;26257;49.442;8.422;2023-03-21T11:05:24;100528.09;;;14.78;81.00
24045;BME280;26257;49.442;8.422;2023-03-21T11:07:58;100524.59;;;14.70;80.47
24045;BME280;26257;49.442;8.422;2023-03-21T11:10:28;100519.06;;;14.97;78.89
24045;BME280;26257;49.442;8.422;2023-03-21T11:12:56;100517.34;;;14.93;78.27
24045;BME280;26257;49.442;8.422;2023-03-21T11:17:59;100518.25;;;14.89;79.47
24045;BME280;26257;49.442;8.422;2023-03-21T11:20:29;100503.81;;;15.25;78.95
24045;BME280;26257;49.442;8.422;2023-03-21T11:22:55;100506.31;;;15.43;76.66
24045;BME280;26257;49.442;8.422;2023-03-21T11:25:38;100493.47;;;15.86;75.02
24045;BME280;26257;49.442;8.422;2023-03-21T11:28:10;100495.84;;;16.12;72.00
24045;BME280;26257;49.442;8.422;2023-03-21T11:30:36;100498.25;;;16.34;70.00
24045;BME280;26257;49.442;8.422;2023-03-21T11:33:03;100494.22;;;16.72;67.37
24045;BME280;26257;49.442;8.422;2023-03-21T11:35:34;100487.88;;;17.35;64.46
24045;BME280;26257;49.442;8.422;2023-03-21T11:38:00;100482.94;;;17.64;61.50
24045;BME280;26257;49.442;8.422;2023-03-21T11:40:31;100479.84;;;17.37;63.48
24045;BME280;26257;49.442;8.422;2023-03-21T11:43:03;100479.53;;;18.04;59.16
24045;BME280;26257;49.442;8.422;2023-03-21T11:45:34;100477.28;;;17.82;59.68
24045;BME280;26257;49.442;8.422;2023-03-21T11:48:09;100463.84;;;17.84;59.64
24045;BME280;26257;49.442;8.422;2023-03-21T11:50:40;100461.84;;;18.39;57.08
24045;BME280;26257;49.442;8.422;2023-03-21T11:53:37;100462.72;;;18.40;56.20
24045;BME280;26257;49.442;8.422;2023-03-21T11:56:45;100456.88;;;18.21;56.78
24045;BME280;26257;49.442;8.422;2023-03-21T11:59:19;100453.03;;;18.33;57.04
24045;BME280;26257;49.442;8.422;2023-03-21T12:09:48;100433.88;;;18.54;56.32
24045;BME280;26257;49.442;8.422;2023-03-21T12:20:31;100411.03;;;19.48;52.04
24045;BME280;26257;49.442;8.422;2023-03-21T12:39:34;100390.22;;;18.54;50.15
24045;BME280;26257;49.442;8.422;2023-03-21T12:44:38;100383.63;;;18.67;49.78
24045;BME280;26257;49.442;8.422;2023-03-21T12:47:18;100380.63;;;18.42;49.48
24045;BME280;26257;49.442;8.422;2023-03-21T12:49:58;100381.00;;;17.85;50.50
24045;BME280;26257;49.442;8.422;2023-03-21T12:52:33;100375.81;;;17.78;53.11
24045;BME280;26257;49.442;8.422;2023-03-21T12:57:33;100374.44;;;17.10;50.57
24045;BME280;26257;49.442;8.422;2023-03-21T13:02:33;100362.38;;;16.85;52.05
24045;BME280;26257;49.442;8.422;2023-03-21T13:05:29;100360.44;;;16.96;50.65
24045;BME280;26257;49.442;8.422;2023-03-21T13:08:38;100356.47;;;17.18;51.63
24045;BME280;26257;49.442;8.422;2023-03-21T13:11:15;100359.13;;;17.65;51.16
24045;BME280;26257;49.442;8.422;2023-03-21T13:16:54;100367.09;;;17.21;51.89
24045;BME280;26257;49.442;8.422;2023-03-21T13:19:32;100363.63;;;17.16;52.14
24045;BME280;26257;49.442;8.422;2023-03-21T13:22:25;100357.66;;;17.00;52.29
24045;BME280;26257;49.442;8.422;2023-03-21T13:25:21;100348.06;;;16.92;54.76
24045;BME280;26257;49.442;8.422;2023-03-21T13:27:59;100354.81;;;17.11;56.65
24045;BME280;26257;49.442;8.422;2023-03-21T13:30:27;100350.13;;;17.25;56.03
24045;BME280;26257;49.442;8.422;2023-03-21T13:33:04;100347.50;;;17.22;56.27
24045;BME280;26257;49.442;8.422;2023-03-21T13:35:38;100344.03;;;17.17;57.22
24045;BME280;26257;49.442;8.422;2023-03-21T13:38:08;100343.19;;;17.15;58.33
24045;BME280;26257;49.442;8.422;2023-03-21T13:40:40;100342.31;;;17.13;58.73
24045;BME280;26257;49.442;8.422;2023-03-21T13:46:15;100334.19;;;16.68;59.36
24045;BME280;26257;49.442;8.422;2023-03-21T13:48:59;100336.16;;;16.60;59.91
24045;BME280;26257;49.442;8.422;2023-03-21T13:56:27;100333.66;;;16.47;63.89
24045;BME280;26257;49.442;8.422;2023-03-21T13:59:02;100334.47;;;16.50;63.88
24045;BME280;26257;49.442;8.422;2023-03-21T14:01:41;100325.63;;;16.48;62.36
24045;BME280;26257;49.442;8.422;2023-03-21T14:04:25;100331.06;;;16.42;63.92
24045;BME280;26257;49.442;8.422;2023-03-21T14:06:56;100327.63;;;16.33;63.72
24045;BME280;26257;49.442;8.422;2023-03-21T14:11:54;100315.25;;;16.30;72.23
24045;BME280;26257;49.442;8.422;2023-03-21T14:14:23;100319.69;;;16.30;74.63
24045;BME280;26257;49.442;8.422;2023-03-21T14:16:52;100309.91;;;16.30;74.40
24045;BME280;26257;49.442;8.422;2023-03-21T14:19:18;100309.03;;;16.30;76.35
24045;BME280;26257;49.442;8.422;2023-03-21T14:21:49;100312.25;;;16.51;77.58
24045;BME280;26257;49.442;8.422;2023-03-21T14:24:18;100315.00;;;16.45;74.24
24045;BME280;26257;49.442;8.422;2023-03-21T14:26:47;100318.38;;;15.98;74.98
24045;BME280;26257;49.442;8.422;2023-03-21T14:29:33;100308.59;;;15.99;70.73
24045;BME280;26257;49.442;8.422;2023-03-21T14:32:00;100317.53;;;15.96;71.51
24045;BME280;26257;49.442;8.422;2023-03-21T14:34:27;100314.13;;;15.87;74.91
24045;BME280;26257;49.442;8.422;2023-03-21T14:36:54;100327.75;;;15.63;81.68
24045;BME280;26257;49.442;8.422;2023-03-21T14:39:22;100325.03;;;15.66;80.48
24045;BME280;26257;49.442;8.422;2023-03-21T14:41:51;100327.88;;;15.52;87.56
24045;BME280;26257;49.442;8.422;2023-03-21T14:44:26;100322.88;;;15.20;99.70
24045;BME280;26257;49.442;8.422;2023-03-21T14:47:02;100322.19;;;15.00;100.00
24045;BME280;26257;49.442;8.422;2023-03-21T14:49:30;100321.34;;;14.98;100.00
24045;BME280;26257;49.442;8.422;2023-03-21T14:52:00;100308.03;;;14.98;100.00
24045;BME280;26257;49.442;8.422;2023-03-21T14:54:26;100306.28;;;14.94;100.00
24045;BME280;26257;49.442;8.422;2023-03-21T14:56:59;100293.94;;;14.90;100.00
24045;BME280;26257;49.442;8.422;2023-03-21T14:59:31;100286.09;;;14.78;100.00
24045;BME280;26257;49.442;8.422;2023-03-21T15:01:59;100268.44;;;14.68;100.00
24045;BME280;26257;49.442;8.422;2023-03-21T15:04:27;100253.44;;;14.61;100.00
24045;BME280;26257;49.442;8.422;2023-03-21T15:06:57;100234.88;;;14.55;100.00
24045;BME280;26257;49.442;8.422;2023-03-21T15:09:26;100229.59;;;14.53;100.00
24045;BME280;26257;49.442;8.422;2023-03-21T15:11:54;100239.28;;;14.59;100.00
24045;BME280;26257;49.442;8.422;2023-03-21T15:14:30;100260.50;;;14.63;100.00
24045;BME280;26257;49.442;8.422;2023-03-21T15:16:58;100276.28;;;14.83;100.00
24045;BME280;26257;49.442;8.422;2023-03-21T15:19:35;100284.44;;;14.63;100.00
24045;BME280;26257;49.442;8.422;2023-03-21T15:22:37;100288.59;;;14.93;100.00